Time;durP1;ratioP1;P1;durP2;ratioP2;P2;SDS_P1;SDS_P2;PMS_P1;PMS_P2;Temp;Humidity;BMP_temperature;BMP_pressure;BME280_temperature;BME280_humidity;BME280_pressure;Samples;Min_cycle;Max_cycle;Signal;HPM_P1;HPM_P2
2021/04/22 00:01:05;;;;;;;26.63;17.63;;;15.40;53.30;;;;;;4995205;28;20031;-69
2021/04/22 00:03:31;;;;;;;28.42;19.80;;;15.50;53.40;;;;;;4994807;28;20022;-69
2021/04/22 00:05:57;;;;;;;31.45;21.27;;;15.40;53.50;;;;;;4994895;28;20403;-68
2021/04/22 00:08:24;;;;;;;27.50;18.65;;;15.40;53.60;;;;;;4993791;28;20057;-69
2021/04/22 00:10:52;;;;;;;30.95;18.88;;;15.40;53.60;;;;;;4995035;28;20036;-69
2021/04/22 00:13:24;;;;;;;33.05;22.63;;;15.30;53.70;;;;;;4994915;28;20513;-68
2021/04/22 00:15:50;;;;;;;26.35;17.90;;;15.30;53.70;;;;;;4995121;28;20034;-69
2021/04/22 00:18:17;;;;;;;25.38;17.80;;;15.30;53.70;;;;;;4994706;28;20031;-69
2021/04/22 00:20:43;;;;;;;32.30;22.33;;;15.30;53.70;;;;;;4994639;28;20049;-69
2021/04/22 00:23:11;;;;;;;33.13;23.20;;;15.30;53.80;;;;;;4994547;28;20026;-69
2021/04/22 00:25:40;;;;;;;29.25;20.17;;;15.30;54.00;;;;;;5026244;28;20390;-69
2021/04/22 00:28:09;;;;;;;35.00;23.05;;;15.30;53.80;;;;;;4994785;28;20046;-68
2021/04/22 00:30:36;;;;;;;31.30;20.80;;;15.30;53.90;;;;;;4994751;28;20859;-69
2021/04/22 00:33:12;;;;;;;33.40;22.75;;;15.30;53.90;;;;;;4993532;28;20390;-69
2021/04/22 00:35:38;;;;;;;34.58;25.55;;;15.30;54.20;;;;;;4992958;28;20382;-69
2021/04/22 00:38:06;;;;;;;29.17;20.08;;;15.30;54.30;;;;;;4994593;28;20033;-69
2021/04/22 00:40:32;;;;;;;29.98;21.38;;;15.20;54.00;;;;;;4994554;28;20029;-69
2021/04/22 00:43:00;;;;;;;27.73;19.50;;;15.20;54.10;;;;;;4994475;28;20022;-69
2021/04/22 00:45:27;;;;;;;31.45;22.65;;;15.20;54.20;;;;;;4994214;28;20030;-69
2021/04/22 00:47:53;;;;;;;29.85;21.15;;;15.20;54.40;;;;;;4994451;28;20445;-69
2021/04/22 00:50:23;;;;;;;33.42;23.38;;;15.10;54.40;;;;;;4994087;28;20030;-68
2021/04/22 00:52:52;;;;;;;31.23;22.23;;;15.10;54.40;;;;;;4994353;28;20014;-68
2021/04/22 00:55:19;;;;;;;33.53;22.70;;;15.10;54.70;;;;;;4994110;28;20034;-68
2021/04/22 00:57:45;;;;;;;32.45;22.15;;;15.10;54.60;;;;;;4983255;28;20057;-68
2021/04/22 01:00:14;;;;;;;32.28;21.20;;;15.10;54.60;;;;;;4994048;28;20478;-68
2021/04/22 01:02:41;;;;;;;35.35;26.05;;;15.10;54.60;;;;;;4994340;28;20520;-68
2021/04/22 01:05:14;;;;;;;33.05;22.48;;;15.00;54.70;;;;;;4993440;28;20105;-69
2021/04/22 01:07:43;;;;;;;31.63;21.83;;;15.10;54.60;;;;;;4993697;28;20019;-69
2021/04/22 01:10:12;;;;;;;28.73;19.25;;;15.00;54.60;;;;;;4992969;28;20034;-69
2021/04/22 01:12:38;;;;;;;28.48;19.13;;;15.00;54.60;;;;;;4993390;28;20026;-69
2021/04/22 01:15:17;;;;;;;28.67;20.05;;;15.00;54.60;;;;;;4993774;28;20037;-69
2021/04/22 01:17:44;;;;;;;30.17;20.23;;;15.00;54.80;;;;;;4993695;28;20473;-69
2021/04/22 01:20:13;;;;;;;35.28;25.58;;;15.00;54.70;;;;;;4993638;28;20058;-68
2021/04/22 01:22:40;;;;;;;37.40;25.77;;;14.90;55.60;;;;;;4993733;28;20351;-69
2021/04/22 01:25:08;;;;;;;35.67;25.45;;;14.90;55.50;;;;;;4993621;28;20038;-69
2021/04/22 01:27:35;;;;;;;33.40;24.30;;;14.80;55.50;;;;;;4993866;28;20094;-69
2021/04/22 01:30:04;;;;;;;32.35;22.42;;;14.80;55.80;;;;;;4993573;28;20037;-68
2021/04/22 01:32:30;;;;;;;29.33;20.38;;;14.80;55.70;;;;;;4993424;28;20119;-69
2021/04/22 01:34:56;;;;;;;34.00;23.13;;;14.70;55.60;;;;;;4992727;28;20030;-69
2021/04/22 01:37:23;;;;;;;35.22;24.27;;;14.70;55.90;;;;;;5024595;28;20026;-69
2021/04/22 01:39:49;;;;;;;40.03;27.58;;;14.70;56.00;;;;;;4993348;28;20434;-69
2021/04/22 01:42:15;;;;;;;32.88;20.55;;;14.70;56.20;;;;;;4993204;28;20026;-69
2021/04/22 01:44:41;;;;;;;30.42;21.80;;;14.60;56.00;;;;;;4992946;28;20101;-69
2021/04/22 01:47:07;;;;;;;31.17;20.40;;;14.70;56.00;;;;;;4993221;28;20235;-68
2021/04/22 01:49:33;;;;;;;27.65;19.30;;;14.70;56.00;;;;;;4993060;28;20034;-68
2021/04/22 01:52:00;;;;;;;27.35;18.25;;;14.60;56.00;;;;;;4993477;28;20011;-68
2021/04/22 01:54:26;;;;;;;26.52;18.52;;;14.60;56.10;;;;;;5024578;28;20446;-68
2021/04/22 01:56:52;;;;;;;26.38;18.42;;;14.60;56.10;;;;;;5007511;28;20564;-68
2021/04/22 01:59:18;;;;;;;28.73;19.70;;;14.60;56.20;;;;;;4993331;28;20070;-68
2021/04/22 02:01:44;;;;;;;27.98;18.27;;;14.50;56.10;;;;;;4993135;28;20423;-68
2021/04/22 02:04:10;;;;;;;31.98;22.85;;;14.60;56.30;;;;;;4979794;28;20027;-68
2021/04/22 02:06:37;;;;;;;31.63;21.98;;;14.50;56.60;;;;;;4992653;28;20061;-68
2021/04/22 02:09:03;;;;;;;27.20;20.17;;;14.50;56.70;;;;;;4992849;28;20411;-68
2021/04/22 02:11:29;;;;;;;31.10;21.42;;;14.50;56.60;;;;;;5024299;28;20030;-69
2021/04/22 02:13:55;;;;;;;37.28;25.60;;;14.50;56.80;;;;;;4992873;28;20455;-68
2021/04/22 02:16:21;;;;;;;31.83;23.17;;;14.50;56.90;;;;;;5024137;28;20828;-69
2021/04/22 02:18:47;;;;;;;34.17;23.85;;;14.40;56.90;;;;;;4993046;28;20022;-68
2021/04/22 02:21:13;;;;;;;28.40;20.15;;;14.40;57.10;;;;;;4992659;28;20097;-68
2021/04/22 02:23:39;;;;;;;35.05;23.80;;;14.40;57.10;;;;;;4992777;28;20027;-70
2021/04/22 02:26:06;;;;;;;34.05;23.65;;;14.40;57.00;;;;;;4992877;28;20110;-71
2021/04/22 02:28:34;;;;;;;29.45;20.77;;;14.30;57.40;;;;;;4992659;28;20217;-69
2021/04/22 02:31:00;;;;;;;26.80;18.65;;;14.30;57.30;;;;;;5007534;28;20030;-68
2021/04/22 02:33:26;;;;;;;26.05;18.50;;;14.30;57.20;;;;;;4992797;28;20034;-68
2021/04/22 02:35:52;;;;;;;35.55;24.85;;;14.30;57.30;;;;;;4992747;28;20498;-68
2021/04/22 02:38:19;;;;;;;28.80;19.63;;;14.30;57.50;;;;;;4992464;28;20034;-69
2021/04/22 02:40:47;;;;;;;34.63;23.58;;;14.30;57.40;;;;;;4992549;28;20030;-69
2021/04/22 02:43:15;;;;;;;29.10;20.90;;;14.30;57.60;;;;;;4992638;28;20106;-68
2021/04/22 02:45:44;;;;;;;34.72;23.20;;;14.20;57.40;;;;;;4992278;28;20568;-69
2021/04/22 02:48:11;;;;;;;27.40;18.80;;;14.20;57.60;;;;;;4992502;28;20098;-68
2021/04/22 02:50:43;;;;;;;27.27;18.23;;;14.20;57.50;;;;;;4992463;28;20514;-68
2021/04/22 02:53:09;;;;;;;31.88;21.75;;;14.20;57.60;;;;;;4992541;28;20045;-69
2021/04/22 02:55:36;;;;;;;30.52;20.27;;;14.20;57.80;;;;;;4992224;28;20018;-68
2021/04/22 02:58:03;;;;;;;28.63;20.05;;;14.20;57.70;;;;;;4995719;28;20070;-68
2021/04/22 03:00:29;;;;;;;27.15;18.98;;;14.10;57.70;;;;;;4996462;28;20023;-68
2021/04/22 03:02:55;;;;;;;29.92;19.85;;;14.10;57.70;;;;;;5027974;28;20022;-68
2021/04/22 03:05:22;;;;;;;28.17;18.88;;;14.10;57.80;;;;;;4995762;28;20372;-68
2021/04/22 03:07:48;;;;;;;30.17;19.17;;;14.10;57.80;;;;;;4996042;28;20034;-68
2021/04/22 03:10:16;;;;;;;30.13;19.77;;;14.10;58.00;;;;;;4996341;28;20129;-68
2021/04/22 03:12:43;;;;;;;30.65;20.30;;;14.10;58.00;;;;;;4995884;28;20026;-68
2021/04/22 03:15:10;;;;;;;28.73;19.67;;;14.10;58.10;;;;;;4996036;28;20022;-68
2021/04/22 03:17:36;;;;;;;29.13;20.33;;;14.00;58.00;;;;;;4996160;28;20019;-68
2021/04/22 03:20:04;;;;;;;27.67;19.10;;;14.00;58.10;;;;;;4996071;28;20022;-68
2021/04/22 03:22:32;;;;;;;27.58;19.13;;;14.00;58.10;;;;;;4995960;28;20030;-69
2021/04/22 03:25:00;;;;;;;28.88;19.27;;;14.00;58.10;;;;;;4995776;28;20025;-69
2021/04/22 03:27:28;;;;;;;33.67;22.27;;;14.00;58.20;;;;;;4995403;28;20030;-68
2021/04/22 03:29:55;;;;;;;28.38;19.60;;;14.00;58.40;;;;;;4995408;28;20029;-69
2021/04/22 03:32:21;;;;;;;28.08;19.15;;;14.00;58.20;;;;;;4995174;28;20034;-68
2021/04/22 03:34:47;;;;;;;30.88;19.60;;;13.90;58.30;;;;;;4995703;28;20022;-68
2021/04/22 03:37:14;;;;;;;30.00;20.17;;;13.90;58.30;;;;;;4995962;28;20026;-68
2021/04/22 03:39:40;;;;;;;27.40;18.70;;;13.90;58.40;;;;;;4995588;28;20466;-68
2021/04/22 03:42:07;;;;;;;26.60;18.40;;;13.90;58.50;;;;;;4995652;28;20041;-68
2021/04/22 03:44:33;;;;;;;28.55;19.33;;;13.80;58.40;;;;;;5026728;28;20534;-68
2021/04/22 03:46:59;;;;;;;29.27;19.38;;;13.80;59.40;;;;;;4995521;28;20386;-68
2021/04/22 03:49:25;;;;;;;29.50;19.42;;;13.80;58.80;;;;;;4995509;28;20518;-68
2021/04/22 03:51:51;;;;;;;29.20;19.75;;;13.80;58.60;;;;;;4995290;28;20027;-68
2021/04/22 03:54:17;;;;;;;29.55;20.05;;;13.80;58.60;;;;;;4995580;28;20030;-68
2021/04/22 03:56:45;;;;;;;26.40;18.48;;;13.80;58.70;;;;;;4994880;28;20045;-68
2021/04/22 03:59:12;;;;;;;27.13;18.27;;;13.70;58.60;;;;;;5026708;28;20033;-68
2021/04/22 04:01:38;;;;;;;31.58;22.50;;;13.70;58.60;;;;;;4995286;28;20454;-68
2021/04/22 04:04:04;;;;;;;29.88;19.65;;;13.70;58.90;;;;;;4995202;28;20034;-68
2021/04/22 04:06:34;;;;;;;28.25;18.85;;;13.70;58.80;;;;;;4995076;28;20097;-68
2021/04/22 04:09:00;;;;;;;29.02;19.50;;;13.70;58.80;;;;;;5026487;28;20038;-70
2021/04/22 04:11:26;;;;;;;27.98;18.80;;;13.60;58.80;;;;;;4995107;28;20026;-68
2021/04/22 04:13:53;;;;;;;30.90;20.30;;;13.60;58.90;;;;;;5006636;28;20037;-68
2021/04/22 04:16:19;;;;;;;24.67;17.50;;;13.60;58.90;;;;;;4995000;28;20038;-68
2021/04/22 04:18:45;;;;;;;31.98;20.73;;;13.60;58.90;;;;;;5010047;28;20014;-68
2021/04/22 04:21:11;;;;;;;26.02;18.50;;;13.60;59.10;;;;;;4994735;28;20489;-68
2021/04/22 04:23:37;;;;;;;28.98;20.25;;;13.50;58.90;;;;;;4994891;28;20030;-68
2021/04/22 04:26:03;;;;;;;29.58;19.13;;;13.50;59.00;;;;;;4994579;28;20106;-69
2021/04/22 04:28:29;;;;;;;31.75;21.45;;;13.50;59.00;;;;;;4994782;28;20038;-68
2021/04/22 04:30:55;;;;;;;33.33;22.70;;;13.50;59.10;;;;;;4994547;28;20030;-68
2021/04/22 04:33:22;;;;;;;28.15;19.15;;;13.50;59.40;;;;;;4994971;28;20117;-68
2021/04/22 04:35:48;;;;;;;32.95;22.10;;;13.40;59.30;;;;;;5026401;28;20038;-68
2021/04/22 04:38:14;;;;;;;34.03;22.50;;;13.40;59.40;;;;;;4994625;28;20467;-68
2021/04/22 04:40:40;;;;;;;30.05;20.02;;;13.40;59.50;;;;;;4994593;28;20029;-68
2021/04/22 04:43:06;;;;;;;28.17;18.35;;;13.30;59.40;;;;;;4994308;28;20026;-68
2021/04/22 04:45:33;;;;;;;26.45;18.80;;;13.30;59.30;;;;;;4994213;28;20023;-68
2021/04/22 04:47:59;;;;;;;35.40;24.48;;;13.30;59.40;;;;;;4994247;28;20382;-68
2021/04/22 04:50:25;;;;;;;30.02;20.40;;;13.30;59.50;;;;;;4994372;28;20601;-68
2021/04/22 04:52:51;;;;;;;28.92;18.58;;;13.30;59.50;;;;;;4994111;28;20037;-68
2021/04/22 04:55:17;;;;;;;28.23;18.10;;;13.30;59.50;;;;;;4994322;28;20030;-68
2021/04/22 04:57:43;;;;;;;25.92;17.45;;;13.20;59.50;;;;;;4993461;28;20089;-68
2021/04/22 05:00:12;;;;;;;27.40;17.33;;;13.20;59.50;;;;;;4994197;28;20022;-68
2021/04/22 05:02:38;;;;;;;25.30;16.92;;;13.20;59.50;;;;;;5025989;28;20030;-68
2021/04/22 05:05:05;;;;;;;27.75;17.77;;;13.20;59.60;;;;;;4993869;28;20042;-68
2021/04/22 05:07:31;;;;;;;25.90;17.40;;;13.20;59.40;;;;;;4992172;28;20037;-68
2021/04/22 05:09:57;;;;;;;25.58;17.02;;;13.20;59.50;;;;;;4994301;28;20018;-73
2021/04/22 05:12:24;;;;;;;23.85;16.80;;;13.20;59.50;;;;;;4993497;28;20045;-73
2021/04/22 05:14:51;;;;;;;25.48;17.35;;;13.20;59.60;;;;;;4993767;28;20026;-73
2021/04/22 05:17:17;;;;;;;29.67;18.40;;;13.20;59.60;;;;;;4992858;28;20034;-73
2021/04/22 05:19:44;;;;;;;26.13;17.08;;;13.10;59.50;;;;;;4993161;28;20026;-72
2021/04/22 05:22:11;;;;;;;29.90;18.15;;;13.20;59.60;;;;;;4993368;28;20090;-72
2021/04/22 05:24:37;;;;;;;26.27;17.67;;;13.20;59.70;;;;;;4993284;28;20022;-73
2021/04/22 05:27:03;;;;;;;25.30;16.35;;;13.20;59.70;;;;;;4992571;28;20042;-74
2021/04/22 05:29:30;;;;;;;23.90;16.35;;;13.20;59.60;;;;;;4993438;28;20022;-72
2021/04/22 05:31:56;;;;;;;26.67;16.75;;;13.20;59.70;;;;;;4992905;28;20030;-73
2021/04/22 05:34:22;;;;;;;26.05;15.52;;;13.30;59.50;;;;;;4993275;28;20037;-74
2021/04/22 05:36:48;;;;;;;25.08;16.27;;;13.30;59.40;;;;;;4992633;28;20399;-73
2021/04/22 05:39:14;;;;;;;24.98;17.38;;;13.30;59.20;;;;;;4993132;28;20101;-75
2021/04/22 05:41:41;;;;;;;27.08;17.98;;;13.30;59.20;;;;;;4991926;28;20352;-78
2021/04/22 05:44:07;;;;;;;23.77;15.95;;;13.30;59.20;;;;;;4993452;28;20094;-77
2021/04/22 05:46:33;;;;;;;24.50;15.80;;;13.30;59.20;;;;;;4991635;28;20065;-78
2021/04/22 05:48:59;;;;;;;26.85;17.42;;;13.30;59.10;;;;;;4992892;28;20467;-78
2021/04/22 05:51:25;;;;;;;25.30;16.92;;;13.30;59.20;;;;;;4992756;28;20062;-76
2021/04/22 05:53:51;;;;;;;24.90;16.20;;;13.40;59.10;;;;;;4992351;28;20034;-78
2021/04/22 05:56:17;;;;;;;25.08;16.98;;;13.40;59.00;;;;;;4992216;28;20422;-78
2021/04/22 05:58:44;;;;;;;26.60;16.23;;;13.40;59.00;;;;;;4992455;28;20037;-77
2021/04/22 06:01:10;;;;;;;25.80;16.67;;;13.40;58.80;;;;;;4992370;28;20022;-78
2021/04/22 06:03:36;;;;;;;26.13;17.58;;;13.50;58.90;;;;;;4991790;28;20406;-77
2021/04/22 06:06:02;;;;;;;25.60;17.10;;;13.50;58.70;;;;;;4991549;28;20057;-77
2021/04/22 06:08:28;;;;;;;28.70;19.50;;;13.50;58.80;;;;;;4990096;28;20116;-77
2021/04/22 06:10:54;;;;;;;29.77;19.48;;;13.50;58.70;;;;;;4999165;28;20375;-77
2021/04/22 06:13:20;;;;;;;26.00;16.88;;;13.50;58.70;;;;;;4991121;28;20022;-78
2021/04/22 06:15:46;;;;;;;24.77;17.05;;;13.50;58.50;;;;;;4990877;28;20034;-77
2021/04/22 06:18:13;;;;;;;24.25;16.60;;;13.60;58.50;;;;;;4990505;28;20030;-77
2021/04/22 06:20:39;;;;;;;22.55;14.95;;;13.60;58.30;;;;;;4991413;28;20022;-76
2021/04/22 06:23:05;;;;;;;34.42;21.25;;;13.60;58.20;;;;;;4990745;28;20379;-77
2021/04/22 06:25:31;;;;;;;25.15;16.70;;;13.70;58.30;;;;;;4991477;28;20447;-75
2021/04/22 06:27:58;;;;;;;23.48;14.95;;;13.70;58.20;;;;;;4990070;28;20033;-79
2021/04/22 06:30:26;;;;;;;21.45;14.63;;;13.80;58.10;;;;;;4991215;28;20020;-78
2021/04/22 06:32:54;;;;;;;24.63;15.23;;;13.80;58.10;;;;;;4990931;28;20439;-77
2021/04/22 06:35:20;;;;;;;22.40;14.63;;;13.80;58.10;;;;;;5023654;28;20026;-77
2021/04/22 06:37:46;;;;;;;23.23;14.52;;;13.90;58.20;;;;;;4990072;28;20030;-76
2021/04/22 06:40:17;;;;;;;28.35;18.27;;;14.00;58.00;;;;;;4992101;28;20106;-76
2021/04/22 06:42:43;;;;;;;31.17;19.58;;;14.10;57.80;;;;;;4991924;28;20050;-77
2021/04/22 06:45:11;;;;;;;26.10;16.83;;;14.10;57.40;;;;;;4991920;28;20031;-75
2021/04/22 06:47:38;;;;;;;23.90;15.55;;;14.20;57.10;;;;;;4991646;28;20517;-76
2021/04/22 06:50:09;;;;;;;31.55;21.70;;;14.30;57.10;;;;;;4991102;28;20118;-75
2021/04/22 06:52:35;;;;;;;32.70;21.95;;;14.40;56.70;;;;;;4991032;28;20026;-75
2021/04/22 06:55:08;;;;;;;28.38;19.35;;;14.40;56.20;;;;;;4984719;28;20154;-79
2021/04/22 06:57:34;;;;;;;29.52;20.48;;;14.50;56.60;;;;;;4990440;28;20054;-77
2021/04/22 07:00:00;;;;;;;28.02;18.95;;;14.60;55.70;;;;;;4987423;28;20027;-77
2021/04/22 07:02:26;;;;;;;31.60;20.65;;;14.70;55.50;;;;;;5023180;28;20037;-74
2021/04/22 07:04:53;;;;;;;29.83;18.92;;;14.90;55.40;;;;;;4991104;28;20026;-76
2021/04/22 07:07:19;;;;;;;28.90;18.33;;;15.10;54.60;;;;;;4990231;28;20073;-76
2021/04/22 07:09:45;;;;;;;25.83;16.75;;;15.30;54.10;;;;;;4991853;28;20042;-73
2021/04/22 07:12:11;;;;;;;24.15;17.00;;;15.60;53.80;;;;;;4990914;28;20394;-77
2021/04/22 07:14:37;;;;;;;20.98;13.90;;;15.90;53.40;;;;;;4987873;28;20022;-77
2021/04/22 07:17:03;;;;;;;27.13;19.15;;;16.30;53.00;;;;;;4990945;28;20026;-77
2021/04/22 07:19:29;;;;;;;25.00;17.48;;;16.50;51.60;;;;;;4991321;28;20022;-77
2021/04/22 07:21:55;;;;;;;27.52;18.65;;;16.90;50.20;;;;;;4989647;28;20046;-77
2021/04/22 07:24:22;;;;;;;28.25;19.20;;;17.30;49.30;;;;;;4990735;28;20486;-77
2021/04/22 07:26:48;;;;;;;26.75;18.95;;;17.70;47.70;;;;;;4990727;28;20065;-77
2021/04/22 07:29:14;;;;;;;23.73;17.92;;;17.90;46.40;;;;;;4991391;28;20049;-76
2021/04/22 07:31:40;;;;;;;25.13;17.75;;;18.10;46.00;;;;;;4991273;28;20030;-76
2021/04/22 07:34:07;;;;;;;21.77;13.50;;;18.30;45.80;;;;;;4989756;28;20450;-76
2021/04/22 07:36:33;;;;;;;23.05;16.67;;;18.60;46.30;;;;;;4991407;28;20022;-76
2021/04/22 07:39:00;;;;;;;24.67;16.35;;;18.90;45.00;;;;;;4990129;28;20025;-77
2021/04/22 07:41:27;;;;;;;21.48;14.73;;;19.20;44.10;;;;;;4991420;28;20033;-77
2021/04/22 07:43:53;;;;;;;20.70;13.13;;;19.20;43.40;;;;;;4994671;28;20022;-77
2021/04/22 07:46:19;;;;;;;24.10;17.05;;;19.50;43.90;;;;;;4994832;28;20459;-77
2021/04/22 07:48:45;;;;;;;22.48;14.70;;;19.70;42.50;;;;;;4994054;28;20537;-76
2021/04/22 07:51:11;;;;;;;26.35;18.13;;;19.90;42.00;;;;;;4994544;28;20030;-75
2021/04/22 07:53:37;;;;;;;21.92;14.07;;;20.00;41.10;;;;;;4994577;28;20483;-77
2021/04/22 07:56:04;;;;;;;27.15;17.75;;;20.20;41.40;;;;;;4994088;28;20478;-76
2021/04/22 07:58:31;;;;;;;26.08;17.77;;;20.30;40.20;;;;;;4994245;28;20430;-77
2021/04/22 08:00:59;;;;;;;26.17;17.40;;;20.30;40.00;;;;;;5026352;28;20030;-79
2021/04/22 08:03:26;;;;;;;21.10;14.75;;;20.40;39.50;;;;;;5026117;28;20049;-77
2021/04/22 08:05:56;;;;;;;25.63;16.73;;;20.50;40.20;;;;;;4993805;28;20045;-77
2021/04/22 08:08:24;;;;;;;19.70;12.65;;;20.70;39.20;;;;;;4992296;28;20426;-77
2021/04/22 08:10:51;;;;;;;25.02;16.80;;;20.80;39.60;;;;;;4993296;28;20038;-77
2021/04/22 08:13:19;;;;;;;24.42;17.20;;;20.80;38.30;;;;;;4993892;28;20375;-77
2021/04/22 08:15:47;;;;;;;25.60;17.73;;;20.80;37.70;;;;;;4993758;28;20465;-76
2021/04/22 08:18:14;;;;;;;22.77;16.00;;;20.50;37.70;;;;;;4993254;28;20031;-77
2021/04/22 08:20:41;;;;;;;20.20;14.50;;;20.30;38.70;;;;;;4993120;28;20037;-75
2021/04/22 08:23:09;;;;;;;24.55;17.33;;;20.60;39.40;;;;;;4994110;28;20022;-76
2021/04/22 08:25:39;;;;;;;24.50;17.70;;;20.70;37.80;;;;;;4994876;28;20030;-76
2021/04/22 08:28:07;;;;;;;20.33;15.38;;;20.40;37.70;;;;;;4993546;28;20022;-76
2021/04/22 08:30:47;;;;;;;24.52;16.45;;;20.40;38.60;;;;;;4990849;28;20034;-76
2021/04/22 08:33:14;;;;;;;28.27;17.88;;;20.50;38.30;;;;;;4988727;28;20030;-76
2021/04/22 08:35:42;;;;;;;24.30;15.75;;;20.50;37.60;;;;;;4992988;28;20058;-76
2021/04/22 08:38:08;;;;;;;22.13;15.40;;;20.50;38.00;;;;;;5015589;28;20026;-76
2021/04/22 08:40:35;;;;;;;24.48;16.38;;;20.50;38.20;;;;;;4992042;28;20039;-76
2021/04/22 08:43:01;;;;;;;22.60;14.20;;;20.50;37.80;;;;;;5019127;28;20051;-76
2021/04/22 08:45:28;;;;;;;24.55;17.60;;;20.60;38.10;;;;;;5015568;28;20026;-77
2021/04/22 08:47:54;;;;;;;24.30;17.02;;;20.50;37.40;;;;;;5024544;28;20064;-76
2021/04/22 08:50:26;;;;;;;23.25;16.40;;;20.30;37.60;;;;;;4992135;28;20486;-76
2021/04/22 08:52:58;;;;;;;23.42;17.38;;;20.30;38.30;;;;;;5024314;28;20030;-76
2021/04/22 08:55:28;;;;;;;24.13;15.80;;;20.00;38.50;;;;;;4989983;28;20117;-76
2021/04/22 08:57:56;;;;;;;25.27;17.67;;;20.00;39.00;;;;;;4992727;28;20038;-76
2021/04/22 09:00:24;;;;;;;22.90;16.25;;;19.90;39.00;;;;;;4992536;28;20511;-76
2021/04/22 09:02:51;;;;;;;24.98;16.13;;;19.90;39.20;;;;;;4992300;28;20030;-76
2021/04/22 09:05:18;;;;;;;24.70;16.85;;;20.00;39.10;;;;;;4992074;28;20026;-76
2021/04/22 09:07:45;;;;;;;24.92;16.20;;;20.00;38.90;;;;;;5020967;28;20129;-75
2021/04/22 09:10:15;;;;;;;23.33;15.90;;;20.00;39.20;;;;;;4993047;28;20030;-75
2021/04/22 09:12:41;;;;;;;25.25;15.75;;;20.30;39.10;;;;;;4990627;28;20121;-75
2021/04/22 09:15:12;;;;;;;25.83;15.02;;;20.60;38.60;;;;;;4991089;28;20026;-75
2021/04/22 09:17:42;;;;;;;17.83;11.23;;;21.00;38.10;;;;;;4991317;28;20035;-77
2021/04/22 09:20:10;;;;;;;21.77;14.32;;;21.50;38.20;;;;;;4992104;28;20498;-77
2021/04/22 09:22:42;;;;;;;21.90;15.18;;;22.10;38.10;;;;;;4991133;28;20113;-72
2021/04/22 09:25:20;;;;;;;18.65;11.75;;;22.50;36.10;;;;;;4992641;28;20026;-73
2021/04/22 09:27:47;;;;;;;19.85;13.18;;;23.00;35.80;;;;;;5023521;28;20038;-74
2021/04/22 09:30:28;;;;;;;17.88;12.70;;;23.30;34.40;;;;;;4991289;28;20030;-72
2021/04/22 09:32:54;;;;;;;20.88;13.73;;;23.50;33.90;;;;;;4991302;28;20031;-73
2021/04/22 09:35:24;;;;;;;22.65;15.55;;;23.60;33.30;;;;;;4992002;28;20534;-73
2021/04/22 09:37:52;;;;;;;20.95;13.80;;;23.50;32.70;;;;;;4991884;28;20042;-73
2021/04/22 09:40:31;;;;;;;20.77;14.55;;;23.40;33.30;;;;;;4990380;28;20022;-73
2021/04/22 09:43:00;;;;;;;21.20;13.82;;;23.50;33.30;;;;;;4991771;28;20052;-73
2021/04/22 09:45:30;;;;;;;22.23;13.52;;;23.60;33.20;;;;;;4992004;28;20054;-73
2021/04/22 09:47:57;;;;;;;23.05;16.15;;;23.60;33.20;;;;;;4991576;28;20035;-73
2021/04/22 09:50:29;;;;;;;22.95;15.38;;;23.60;32.40;;;;;;4991365;28;20049;-73
2021/04/22 09:52:58;;;;;;;19.08;14.48;;;23.60;32.80;;;;;;4991379;28;20037;-73
2021/04/22 09:55:29;;;;;;;19.85;13.23;;;23.60;32.60;;;;;;4991771;28;20026;-73
2021/04/22 09:57:56;;;;;;;23.08;14.23;;;23.60;33.10;;;;;;5022160;28;20054;-73
2021/04/22 10:00:29;;;;;;;18.45;13.60;;;23.70;33.10;;;;;;4992248;28;20030;-73
2021/04/22 10:03:01;;;;;;;21.30;14.90;;;23.70;33.10;;;;;;4992569;28;20025;-71
2021/04/22 10:05:30;;;;;;;16.77;10.77;;;23.60;32.50;;;;;;4991972;28;20022;-73
2021/04/22 10:08:11;;;;;;;19.30;12.68;;;23.60;33.10;;;;;;4990658;28;20026;-73
2021/04/22 10:10:54;;;;;;;18.35;12.98;;;23.50;33.20;;;;;;4989683;28;20499;-73
2021/04/22 10:13:21;;;;;;;19.05;13.18;;;23.30;33.20;;;;;;5021790;28;20122;-72
2021/04/22 10:15:56;;;;;;;19.77;12.95;;;23.00;33.70;;;;;;4989609;28;20038;-75
2021/04/22 10:18:39;;;;;;;23.02;13.95;;;22.60;34.80;;;;;;4991438;28;20030;-72
2021/04/22 10:21:05;;;;;;;19.38;13.10;;;22.30;35.40;;;;;;5011864;28;20390;-71
2021/04/22 10:23:32;;;;;;;20.45;13.93;;;22.20;35.90;;;;;;5016553;28;20032;-71
2021/04/22 10:25:58;;;;;;;19.33;13.15;;;22.10;36.00;;;;;;5021140;28;20359;-72
2021/04/22 10:28:25;;;;;;;20.75;14.48;;;21.90;36.10;;;;;;5011611;28;20026;-73
2021/04/22 10:30:57;;;;;;;24.60;15.30;;;21.80;36.10;;;;;;5016255;28;20127;-71
2021/04/22 10:33:25;;;;;;;23.23;14.73;;;21.60;36.10;;;;;;5024604;28;20025;-71
2021/04/22 10:35:51;;;;;;;24.05;15.90;;;21.40;36.40;;;;;;5023356;28;20072;-73
2021/04/22 10:38:19;;;;;;;32.00;22.70;;;21.00;37.40;;;;;;5021808;28;20029;-74
2021/04/22 10:40:49;;;;;;;31.55;22.20;;;20.70;38.20;;;;;;5010728;28;20030;-70
2021/04/22 10:43:28;;;;;;;23.27;16.15;;;20.70;38.80;;;;;;5017963;28;20504;-70
2021/04/22 10:45:56;;;;;;;20.77;14.32;;;20.70;38.60;;;;;;5009641;28;20036;-73
2021/04/22 10:48:24;;;;;;;23.65;16.45;;;20.60;39.20;;;;;;5012064;28;20485;-71
2021/04/22 10:50:53;;;;;;;23.65;15.18;;;20.60;40.50;;;;;;5009108;28;20030;-70
2021/04/22 10:53:21;;;;;;;19.73;14.23;;;20.70;39.20;;;;;;5013148;28;20025;-71
2021/04/22 10:55:50;;;;;;;22.80;15.13;;;21.00;39.40;;;;;;5026599;28;20032;-71
2021/04/22 10:58:27;;;;;;;22.63;14.07;;;21.20;38.90;;;;;;5011795;28;20053;-71
2021/04/22 11:00:59;;;;;;;19.40;11.82;;;21.40;38.60;;;;;;5012042;28;20391;-70
2021/04/22 11:03:38;;;;;;;22.60;15.48;;;21.50;38.80;;;;;;4997443;28;20029;-72
2021/04/22 11:06:16;;;;;;;25.35;17.45;;;21.70;38.10;;;;;;5015054;28;20505;-72
2021/04/22 11:08:51;;;;;;;21.85;14.90;;;21.50;36.90;;;;;;5011586;28;20033;-71
2021/04/22 11:11:35;;;;;;;21.88;15.75;;;21.30;37.80;;;;;;5007160;28;20030;-71
2021/04/22 11:14:14;;;;;;;24.25;15.15;;;21.20;38.70;;;;;;5003668;28;20036;-71
2021/04/22 11:16:52;;;;;;;21.67;14.87;;;21.30;38.80;;;;;;5000136;28;20034;-71
2021/04/22 11:19:22;;;;;;;22.13;14.95;;;21.40;37.80;;;;;;5010544;28;20146;-71
2021/04/22 11:21:56;;;;;;;21.60;14.27;;;21.20;38.20;;;;;;5008768;28;20030;-72
2021/04/22 11:24:30;;;;;;;21.70;15.07;;;21.20;38.20;;;;;;5011279;28;20493;-73
2021/04/22 11:27:13;;;;;;;26.05;16.48;;;21.10;38.80;;;;;;5020177;28;20021;-73
2021/04/22 11:29:43;;;;;;;20.50;13.63;;;20.90;38.90;;;;;;5026260;28;20037;-71
2021/04/22 11:32:20;;;;;;;;;;;20.80;39.20;;;;;;5021961;28;20030;-72
2021/04/22 11:34:47;;;;;;;19.42;12.30;;;20.80;39.30;;;;;;5022063;28;19916;-71
2021/04/22 11:37:31;;;;;;;17.90;12.38;;;20.90;39.50;;;;;;5010066;28;20049;-71
2021/04/22 11:40:08;;;;;;;20.33;13.27;;;21.10;39.90;;;;;;5015409;28;20497;-71
2021/04/22 11:42:38;;;;;;;19.77;14.07;;;21.20;39.30;;;;;;5010114;28;20145;-71
2021/04/22 11:45:11;;;;;;;26.35;17.30;;;21.20;39.20;;;;;;5025522;28;20036;-71
2021/04/22 11:47:46;;;;;;;24.48;16.80;;;21.00;39.00;;;;;;5011190;28;20068;-71
2021/04/22 11:50:16;;;;;;;22.98;14.63;;;20.70;39.50;;;;;;5013635;28;20041;-70
2021/04/22 11:52:46;;;;;;;22.75;16.15;;;20.50;39.70;;;;;;5005528;28;20527;-71
2021/04/22 11:55:25;;;;;;;22.48;15.05;;;20.50;39.70;;;;;;5013324;28;20490;-71
2021/04/22 11:58:12;;;;;;;21.00;14.48;;;20.50;39.90;;;;;;5008824;28;20038;-70
2021/04/22 12:00:47;;;;;;;21.17;13.20;;;20.50;39.50;;;;;;5010364;28;20030;-70
2021/04/22 12:03:26;;;;;;;22.58;15.48;;;20.60;39.90;;;;;;5011461;28;20569;-69
2021/04/22 12:05:56;;;;;;;23.15;16.33;;;20.60;40.00;;;;;;5018188;28;20025;-71
2021/04/22 12:08:50;;;;;;;21.92;15.70;;;20.60;38.90;;;;;;5033292;28;20029;-70
2021/04/22 12:11:21;;;;;;;22.52;15.57;;;20.50;39.10;;;;;;5023078;28;20538;-70
2021/04/22 12:13:48;;;;;;;23.83;16.80;;;20.40;38.50;;;;;;5017791;28;20029;-71
2021/04/22 12:16:15;;;;;;;21.85;15.35;;;20.30;38.50;;;;;;5013182;28;20033;-70
2021/04/22 12:18:46;;;;;;;22.42;15.23;;;20.20;38.70;;;;;;5013146;28;20030;-70
2021/04/22 12:21:18;;;;;;;24.70;16.45;;;20.20;39.20;;;;;;5012045;28;20041;-70
2021/04/22 12:23:45;;;;;;;23.13;15.73;;;20.10;38.40;;;;;;5013355;28;20022;-72
2021/04/22 12:26:30;;;;;;;24.13;16.02;;;20.10;39.30;;;;;;5024378;28;20030;-70
2021/04/22 12:29:07;;;;;;;21.75;14.55;;;20.10;38.70;;;;;;5013108;28;20037;-71
2021/04/22 12:31:44;;;;;;;21.58;16.15;;;20.10;39.00;;;;;;5013726;28;20021;-70
2021/04/22 12:34:26;;;;;;;20.02;15.10;;;20.20;39.00;;;;;;5013817;28;20030;-71